createdAt,value
2023-05-05T00:01:22.872Z,100.00
2023-05-05T00:03:49.194Z,100.00
2023-05-05T00:06:15.448Z,100.00
2023-05-05T00:08:41.737Z,100.00
2023-05-05T00:11:07.969Z,100.00
2023-05-05T00:13:34.206Z,100.00
2023-05-05T00:16:00.532Z,100.00
2023-05-05T00:18:26.756Z,100.00
2023-05-05T00:20:52.997Z,100.00
2023-05-05T00:23:19.224Z,100.00
2023-05-05T00:25:45.444Z,100.00
2023-05-05T00:28:11.735Z,100.00
2023-05-05T00:30:37.975Z,100.00
2023-05-05T00:33:04.376Z,100.00
2023-05-05T00:35:30.738Z,100.00
2023-05-05T00:37:56.990Z,100.00
2023-05-05T00:40:23.241Z,100.00
2023-05-05T00:42:49.526Z,100.00
2023-05-05T00:45:15.868Z,100.00
2023-05-05T00:47:42.129Z,100.00
2023-05-05T00:50:08.481Z,100.00
2023-05-05T00:52:34.852Z,100.00
2023-05-05T00:55:01.105Z,100.00
2023-05-05T00:57:27.339Z,100.00
2023-05-05T00:59:53.589Z,100.00
2023-05-05T01:02:19.788Z,100.00
2023-05-05T01:04:46.111Z,100.00
2023-05-05T01:07:12.364Z,100.00
2023-05-05T01:09:38.636Z,100.00
2023-05-05T01:12:04.914Z,100.00
2023-05-05T01:14:31.125Z,100.00
2023-05-05T01:16:57.471Z,100.00
2023-05-05T01:19:23.744Z,100.00
2023-05-05T01:21:50.059Z,100.00
2023-05-05T01:24:16.307Z,100.00
2023-05-05T01:26:42.581Z,100.00
2023-05-05T01:29:08.833Z,100.00
2023-05-05T01:31:35.071Z,100.00
2023-05-05T01:34:01.372Z,100.00
2023-05-05T01:36:27.625Z,100.00
2023-05-05T01:38:53.876Z,100.00
2023-05-05T01:41:20.185Z,100.00
2023-05-05T01:43:46.443Z,100.00
2023-05-05T01:46:12.857Z,100.00
2023-05-05T01:48:41.067Z,100.00
2023-05-05T01:51:08.540Z,100.00
2023-05-05T01:53:34.796Z,100.00
2023-05-05T01:56:01.035Z,100.00
2023-05-05T01:58:27.285Z,100.00
2023-05-05T02:00:53.538Z,100.00
2023-05-05T02:03:20.009Z,100.00
2023-05-05T02:05:46.405Z,100.00
2023-05-05T02:08:12.703Z,100.00
2023-05-05T02:10:39.075Z,100.00
2023-05-05T02:13:05.551Z,100.00
2023-05-05T02:15:31.942Z,100.00
2023-05-05T02:17:58.209Z,100.00
2023-05-05T02:20:24.474Z,100.00
2023-05-05T02:22:50.838Z,100.00
2023-05-05T02:25:17.121Z,100.00
2023-05-05T02:27:43.432Z,100.00
2023-05-05T02:30:10.008Z,100.00
2023-05-05T02:32:36.602Z,100.00
2023-05-05T02:35:02.942Z,100.00
2023-05-05T02:37:29.270Z,100.00
2023-05-05T02:39:55.467Z,100.00
2023-05-05T02:42:21.705Z,100.00
2023-05-05T02:44:48.022Z,100.00
2023-05-05T02:47:14.256Z,100.00
2023-05-05T02:49:40.532Z,100.00
2023-05-05T02:52:06.818Z,100.00
2023-05-05T02:54:33.147Z,100.00
2023-05-05T02:56:59.432Z,100.00
2023-05-05T02:59:25.715Z,100.00
2023-05-05T03:01:52.052Z,100.00
2023-05-05T03:04:18.388Z,100.00
2023-05-05T03:06:44.709Z,100.00
2023-05-05T03:09:10.949Z,100.00
2023-05-05T03:11:37.216Z,100.00
2023-05-05T03:14:03.454Z,100.00
2023-05-05T03:16:29.772Z,100.00
2023-05-05T03:18:56.095Z,100.00
2023-05-05T03:21:22.347Z,100.00
2023-05-05T03:23:48.558Z,100.00
2023-05-05T03:26:14.797Z,100.00
2023-05-05T03:28:41.024Z,100.00
2023-05-05T03:31:07.239Z,100.00
2023-05-05T03:33:33.504Z,100.00
2023-05-05T03:35:59.822Z,100.00
2023-05-05T03:38:26.092Z,100.00
2023-05-05T03:40:52.353Z,100.00
2023-05-05T03:43:18.597Z,100.00
2023-05-05T03:45:44.855Z,100.00
2023-05-05T03:48:11.136Z,100.00
2023-05-05T03:50:37.383Z,100.00
2023-05-05T03:53:03.590Z,100.00
2023-05-05T03:55:29.802Z,100.00
2023-05-05T03:57:56.095Z,100.00
2023-05-05T04:00:22.321Z,100.00
2023-05-05T04:02:48.663Z,100.00
2023-05-05T04:05:15.007Z,100.00
2023-05-05T04:07:41.216Z,100.00
2023-05-05T04:10:07.745Z,100.00
2023-05-05T04:12:34.210Z,100.00
2023-05-05T04:15:00.490Z,100.00
2023-05-05T04:17:26.827Z,100.00
2023-05-05T04:19:53.102Z,100.00
2023-05-05T04:22:19.386Z,100.00
2023-05-05T04:24:45.661Z,100.00
2023-05-05T04:27:11.918Z,100.00
2023-05-05T04:29:38.143Z,100.00
2023-05-05T04:32:04.337Z,100.00
2023-05-05T04:34:30.560Z,100.00
2023-05-05T04:36:56.753Z,100.00
2023-05-05T04:39:23.004Z,100.00
2023-05-05T04:41:49.210Z,100.00
2023-05-05T04:44:15.401Z,100.00
2023-05-05T04:46:41.652Z,100.00
2023-05-05T04:49:07.903Z,100.00
2023-05-05T04:51:34.159Z,100.00
2023-05-05T04:54:00.410Z,100.00
2023-05-05T04:56:26.751Z,100.00
2023-05-05T04:58:52.989Z,100.00
2023-05-05T05:01:19.286Z,100.00
2023-05-05T05:03:45.720Z,100.00
2023-05-05T05:06:12.088Z,100.00
2023-05-05T05:08:38.364Z,100.00
2023-05-05T05:11:04.606Z,100.00
2023-05-05T05:13:30.868Z,100.00
2023-05-05T05:15:57.205Z,100.00
2023-05-05T05:18:23.524Z,100.00
2023-05-05T05:20:49.765Z,100.00
2023-05-05T05:23:16.076Z,100.00
2023-05-05T05:25:42.324Z,100.00
2023-05-05T05:28:10.698Z,100.00
2023-05-05T05:30:37.343Z,100.00
2023-05-05T05:33:03.760Z,100.00
2023-05-05T05:35:30.117Z,100.00
2023-05-05T05:37:56.375Z,100.00
2023-05-05T05:40:22.623Z,100.00
2023-05-05T05:42:48.804Z,100.00
2023-05-05T05:45:15.023Z,100.00
2023-05-05T05:47:41.333Z,100.00
2023-05-05T05:50:07.970Z,100.00
2023-05-05T05:52:34.468Z,100.00
2023-05-05T05:55:00.788Z,100.00
2023-05-05T05:57:27.098Z,100.00
2023-05-05T05:59:53.371Z,100.00
2023-05-05T06:02:19.652Z,100.00
2023-05-05T06:04:45.869Z,100.00
2023-05-05T06:07:12.106Z,100.00
2023-05-05T06:09:38.444Z,100.00
2023-05-05T06:12:04.663Z,100.00
2023-05-05T06:14:30.900Z,100.00
2023-05-05T06:16:57.211Z,100.00
2023-05-05T06:19:23.467Z,100.00
2023-05-05T06:21:49.761Z,100.00
2023-05-05T06:24:16.049Z,100.00
2023-05-05T06:26:42.758Z,100.00
2023-05-05T06:29:10.504Z,100.00
2023-05-05T06:31:38.423Z,100.00
2023-05-05T06:34:04.660Z,100.00
2023-05-05T06:36:31.053Z,100.00
2023-05-05T06:38:57.348Z,100.00
2023-05-05T06:41:23.623Z,100.00
2023-05-05T06:43:49.870Z,100.00
2023-05-05T06:46:16.179Z,100.00
2023-05-05T06:48:42.452Z,100.00
2023-05-05T06:51:08.676Z,100.00
2023-05-05T06:53:34.971Z,100.00
2023-05-05T06:56:01.235Z,100.00
2023-05-05T06:58:27.490Z,100.00
2023-05-05T07:00:53.856Z,100.00
2023-05-05T07:03:20.200Z,100.00
2023-05-05T07:05:46.528Z,100.00
2023-05-05T07:08:12.813Z,100.00
2023-05-05T07:10:39.045Z,100.00
2023-05-05T07:13:05.359Z,100.00
2023-05-05T07:15:31.704Z,100.00
2023-05-05T07:17:58.230Z,100.00
2023-05-05T07:20:24.822Z,100.00
2023-05-05T07:22:51.077Z,100.00
2023-05-05T07:25:17.384Z,100.00
2023-05-05T07:27:43.733Z,100.00
2023-05-05T07:30:13.974Z,100.00
2023-05-05T07:32:42.753Z,100.00
2023-05-05T07:35:09.045Z,100.00
2023-05-05T07:37:35.436Z,100.00
2023-05-05T07:40:01.749Z,100.00
2023-05-05T07:42:28.061Z,100.00
2023-05-05T07:44:54.315Z,100.00
2023-05-05T07:47:20.694Z,100.00
2023-05-05T07:49:46.952Z,100.00
2023-05-05T07:52:13.198Z,100.00
2023-05-05T07:54:39.523Z,100.00
2023-05-05T07:57:05.804Z,100.00
2023-05-05T07:59:32.066Z,100.00
2023-05-05T08:01:58.367Z,100.00
2023-05-05T08:04:24.646Z,100.00
2023-05-05T08:06:50.925Z,100.00
2023-05-05T08:09:17.288Z,100.00
2023-05-05T08:11:43.550Z,100.00
2023-05-05T08:14:09.816Z,100.00
2023-05-05T08:16:36.303Z,100.00
2023-05-05T08:19:02.751Z,100.00
2023-05-05T08:21:29.019Z,100.00
2023-05-05T08:23:55.288Z,100.00
2023-05-05T08:26:21.557Z,100.00
2023-05-05T08:28:47.849Z,100.00
2023-05-05T08:31:14.121Z,100.00
2023-05-05T08:33:40.476Z,100.00
2023-05-05T08:36:06.755Z,100.00
2023-05-05T08:38:33.041Z,100.00
2023-05-05T08:40:59.350Z,100.00
2023-05-05T08:43:25.635Z,100.00
2023-05-05T08:45:51.872Z,100.00
2023-05-05T08:48:18.123Z,100.00
2023-05-05T08:50:44.378Z,100.00
2023-05-05T08:53:10.643Z,100.00
2023-05-05T08:55:36.907Z,100.00
2023-05-05T08:58:03.240Z,100.00
2023-05-05T09:00:29.476Z,100.00
2023-05-05T09:02:55.820Z,100.00
2023-05-05T09:05:22.094Z,100.00
2023-05-05T09:07:48.427Z,100.00
2023-05-05T09:10:14.715Z,100.00
2023-05-05T09:12:41.095Z,100.00
2023-05-05T09:15:07.534Z,100.00
2023-05-05T09:17:33.941Z,100.00
2023-05-05T09:20:00.258Z,100.00
2023-05-05T09:22:26.495Z,100.00
2023-05-05T09:24:52.747Z,100.00
2023-05-05T09:27:18.986Z,100.00
2023-05-05T09:29:45.255Z,100.00
2023-05-05T09:32:11.532Z,100.00
2023-05-05T09:34:37.859Z,100.00
2023-05-05T09:37:04.073Z,100.00
2023-05-05T09:39:30.306Z,100.00
2023-05-05T09:41:56.636Z,100.00
2023-05-05T09:44:22.955Z,100.00
2023-05-05T09:46:49.291Z,100.00
2023-05-05T09:49:15.557Z,100.00
2023-05-05T09:51:41.837Z,100.00
2023-05-05T09:54:08.059Z,100.00
2023-05-05T09:56:34.290Z,100.00
2023-05-05T09:59:00.548Z,100.00
2023-05-05T10:01:26.817Z,100.00
2023-05-05T10:03:53.108Z,100.00
2023-05-05T10:06:19.396Z,100.00
2023-05-05T10:08:45.666Z,100.00
2023-05-05T10:11:11.923Z,100.00
2023-05-05T10:13:38.205Z,100.00
2023-05-05T10:16:04.516Z,100.00
2023-05-05T10:18:30.816Z,100.00
2023-05-05T10:20:57.095Z,100.00
2023-05-05T10:23:23.348Z,100.00
2023-05-05T10:25:49.603Z,100.00
2023-05-05T10:28:15.854Z,100.00
2023-05-05T10:30:42.162Z,100.00
2023-05-05T10:35:39.791Z,100.00
2023-05-05T10:38:06.051Z,95.55
2023-05-05T10:40:32.360Z,95.45
2023-05-05T10:42:58.686Z,96.34
2023-05-05T10:45:25.075Z,95.59
2023-05-05T10:47:51.435Z,92.47
2023-05-05T10:50:17.659Z,88.30
2023-05-05T10:52:43.950Z,82.34
2023-05-05T10:55:10.259Z,87.52
2023-05-05T10:57:36.507Z,86.85
2023-05-05T11:00:02.743Z,86.38
2023-05-05T11:02:29.246Z,87.31
2023-05-05T11:04:55.613Z,88.44
2023-05-05T11:07:21.868Z,86.44
2023-05-05T11:09:48.099Z,83.10
2023-05-05T11:12:14.415Z,84.07
2023-05-05T11:14:40.675Z,76.59
2023-05-05T11:17:06.911Z,79.92
2023-05-05T11:19:33.187Z,81.55
2023-05-05T11:21:59.476Z,80.31
2023-05-05T11:24:25.757Z,78.85
2023-05-05T11:26:51.979Z,75.95
2023-05-05T11:29:18.225Z,72.03
2023-05-05T11:31:44.452Z,72.90
2023-05-05T11:34:10.726Z,78.39
2023-05-05T11:36:37.011Z,79.41
2023-05-05T11:39:03.364Z,77.43
2023-05-05T11:41:29.664Z,80.98
2023-05-05T11:43:55.988Z,84.29
2023-05-05T11:46:22.240Z,83.70
2023-05-05T11:48:48.525Z,84.68
2023-05-05T11:51:14.779Z,84.04
2023-05-05T11:53:41.078Z,86.23
2023-05-05T11:56:07.362Z,86.27
2023-05-05T11:58:33.667Z,85.16
2023-05-05T12:00:59.937Z,78.45
2023-05-05T12:03:26.262Z,79.06
2023-05-05T12:05:52.645Z,75.54
2023-05-05T12:08:18.916Z,74.84
2023-05-05T12:10:45.197Z,72.29
2023-05-05T12:13:12.044Z,77.05
2023-05-05T12:15:38.406Z,77.10
2023-05-05T12:18:04.713Z,75.36
2023-05-05T12:20:31.051Z,74.46
2023-05-05T12:22:57.334Z,75.95
2023-05-05T12:25:23.616Z,78.42
2023-05-05T12:27:49.857Z,78.44
2023-05-05T12:30:16.177Z,71.27
2023-05-05T12:32:42.524Z,77.44
2023-05-05T12:35:08.890Z,77.03
2023-05-05T12:37:35.182Z,72.63
2023-05-05T12:40:01.530Z,69.07
2023-05-05T12:42:27.838Z,71.30
2023-05-05T12:44:54.146Z,74.86
2023-05-05T12:47:20.466Z,72.70
2023-05-05T12:49:46.755Z,73.31
2023-05-05T12:52:13.181Z,73.23
2023-05-05T12:54:39.429Z,73.48
2023-05-05T12:57:05.743Z,75.83
2023-05-05T12:59:32.049Z,78.70
2023-05-05T13:01:58.352Z,77.80
2023-05-05T13:04:24.731Z,83.64
2023-05-05T13:06:52.071Z,83.34
2023-05-05T13:09:19.868Z,84.48
2023-05-05T13:11:46.191Z,83.01
2023-05-05T13:14:12.452Z,82.21
2023-05-05T13:16:38.714Z,85.52
2023-05-05T13:19:05.032Z,86.43
2023-05-05T13:21:31.324Z,81.26
2023-05-05T13:24:08.088Z,81.62
2023-05-05T13:26:38.554Z,83.36
2023-05-05T13:29:04.797Z,78.93
2023-05-05T13:31:31.119Z,84.54
2023-05-05T13:33:57.411Z,75.80
2023-05-05T13:36:23.745Z,78.20
2023-05-05T13:38:50.039Z,73.64
2023-05-05T13:41:16.326Z,67.61
2023-05-05T13:43:42.612Z,65.51
2023-05-05T13:46:19.170Z,68.88
2023-05-05T13:48:46.656Z,74.50
2023-05-05T13:51:12.923Z,76.83
2023-05-05T13:53:39.165Z,76.34
2023-05-05T13:56:05.453Z,68.73
2023-05-05T13:58:31.667Z,65.37
2023-05-05T14:00:59.185Z,60.85
2023-05-05T14:03:25.476Z,66.80
2023-05-05T14:05:51.764Z,67.78
2023-05-05T14:08:18.007Z,69.16
2023-05-05T14:10:46.681Z,72.67
2023-05-05T14:13:13.818Z,76.09
2023-05-05T14:15:40.095Z,79.17
2023-05-05T14:18:06.388Z,80.32
2023-05-05T14:20:32.639Z,84.06
2023-05-05T14:22:58.867Z,83.10
2023-05-05T14:25:25.121Z,74.38
2023-05-05T14:27:51.379Z,73.40
2023-05-05T14:30:17.620Z,70.25
2023-05-05T14:32:44.022Z,73.78
2023-05-05T14:35:10.484Z,70.93
2023-05-05T14:37:36.781Z,74.06
2023-05-05T14:40:05.516Z,75.27
2023-05-05T14:42:32.041Z,70.05
2023-05-05T14:44:58.361Z,70.04
2023-05-05T14:47:24.661Z,66.48
2023-05-05T14:49:50.942Z,68.27
2023-05-05T14:52:17.292Z,67.92
2023-05-05T14:54:43.604Z,69.39
2023-05-05T14:57:09.894Z,69.51
2023-05-05T14:59:36.169Z,71.11
2023-05-05T15:02:02.600Z,70.13
2023-05-05T15:04:28.915Z,68.52
2023-05-05T15:06:55.431Z,71.31
2023-05-05T15:09:21.702Z,69.36
2023-05-05T15:11:47.946Z,71.14
2023-05-05T15:14:14.254Z,70.21
2023-05-05T15:16:40.642Z,70.77
2023-05-05T15:19:06.981Z,68.93
2023-05-05T15:21:33.247Z,73.26
2023-05-05T15:23:59.506Z,69.04
2023-05-05T15:26:25.772Z,67.45
2023-05-05T15:28:51.996Z,64.29
2023-05-05T15:31:18.261Z,65.17
2023-05-05T15:33:44.549Z,66.95
2023-05-05T15:36:10.789Z,67.72
2023-05-05T15:38:37.104Z,68.36
2023-05-05T15:41:03.424Z,67.73
2023-05-05T15:43:29.706Z,67.91
2023-05-05T15:45:55.990Z,69.03
2023-05-05T15:48:22.269Z,69.77
2023-05-05T15:50:48.553Z,67.47
2023-05-05T15:53:14.849Z,66.60
2023-05-05T15:55:41.103Z,66.03
2023-05-05T15:58:07.401Z,66.03
2023-05-05T16:00:33.704Z,65.83
2023-05-05T16:03:00.118Z,66.03
2023-05-05T16:05:26.444Z,67.31
2023-05-05T16:07:52.707Z,69.23
2023-05-05T16:10:18.985Z,69.24
2023-05-05T16:12:45.333Z,70.53
2023-05-05T16:15:11.812Z,68.01
2023-05-05T16:17:38.164Z,65.88
2023-05-05T16:20:04.454Z,68.82
2023-05-05T16:22:30.798Z,71.23
2023-05-05T16:24:57.074Z,73.02
2023-05-05T16:27:23.302Z,72.85
2023-05-05T16:29:49.542Z,71.60
2023-05-05T16:32:15.842Z,70.76
2023-05-05T16:34:42.046Z,71.34
2023-05-05T16:37:08.213Z,71.96
2023-05-05T16:39:34.461Z,73.76
2023-05-05T16:42:00.735Z,75.19
2023-05-05T16:44:26.949Z,76.79
2023-05-05T16:46:53.196Z,81.35
2023-05-05T16:49:19.468Z,84.91
2023-05-05T16:51:45.723Z,89.14
2023-05-05T16:54:11.974Z,92.46
2023-05-05T16:56:38.265Z,94.23
2023-05-05T16:59:04.527Z,95.18
2023-05-05T17:01:30.824Z,94.99
2023-05-05T17:03:57.162Z,94.82
2023-05-05T17:06:23.395Z,97.14
2023-05-05T17:08:49.630Z,99.96
2023-05-05T17:11:15.849Z,100.00
2023-05-05T17:13:42.091Z,100.00
2023-05-05T17:16:08.425Z,100.00
2023-05-05T17:18:34.640Z,100.00
2023-05-05T17:21:00.896Z,100.00
2023-05-05T17:23:27.137Z,100.00
2023-05-05T17:25:53.391Z,100.00
2023-05-05T17:28:19.601Z,100.00
2023-05-05T17:30:45.856Z,100.00
2023-05-05T17:33:12.108Z,100.00
2023-05-05T17:35:38.341Z,100.00
2023-05-05T17:38:04.599Z,100.00
2023-05-05T17:40:30.875Z,100.00
2023-05-05T17:42:57.163Z,100.00
2023-05-05T17:45:23.427Z,100.00
2023-05-05T17:47:49.676Z,100.00
2023-05-05T17:50:16.007Z,100.00
2023-05-05T17:52:42.328Z,100.00
2023-05-05T17:55:08.935Z,100.00
2023-05-05T17:57:35.443Z,100.00
2023-05-05T18:00:01.801Z,100.00
2023-05-05T18:02:28.125Z,100.00
2023-05-05T18:04:54.384Z,100.00
2023-05-05T18:07:20.658Z,100.00
2023-05-05T18:09:46.946Z,100.00
2023-05-05T18:12:13.265Z,100.00
2023-05-05T18:14:39.472Z,100.00
2023-05-05T18:17:05.804Z,100.00
2023-05-05T18:19:32.109Z,100.00
2023-05-05T18:21:58.391Z,100.00
2023-05-05T18:24:24.644Z,100.00
2023-05-05T18:26:50.885Z,100.00
2023-05-05T18:29:17.206Z,100.00
2023-05-05T18:31:43.527Z,100.00
2023-05-05T18:34:09.813Z,100.00
2023-05-05T18:36:36.056Z,100.00
2023-05-05T18:39:02.330Z,100.00
2023-05-05T18:41:28.627Z,100.00
2023-05-05T18:43:54.848Z,100.00
2023-05-05T18:46:21.147Z,100.00
2023-05-05T18:48:47.434Z,100.00
2023-05-05T18:51:13.705Z,100.00
2023-05-05T18:53:40.564Z,100.00
2023-05-05T18:56:07.038Z,100.00
2023-05-05T18:58:33.322Z,100.00
2023-05-05T19:00:59.658Z,100.00
2023-05-05T19:03:26.016Z,100.00
2023-05-05T19:05:52.318Z,100.00
2023-05-05T19:08:18.574Z,100.00
2023-05-05T19:10:44.893Z,100.00
2023-05-05T19:13:11.321Z,100.00
2023-05-05T19:15:37.603Z,100.00
2023-05-05T19:18:03.935Z,100.00
2023-05-05T19:20:30.194Z,100.00
2023-05-05T19:22:56.431Z,100.00
2023-05-05T19:25:22.639Z,100.00
2023-05-05T19:27:48.906Z,100.00
2023-05-05T19:30:15.152Z,100.00
2023-05-05T19:32:41.473Z,100.00
2023-05-05T19:35:08.059Z,100.00
2023-05-05T19:37:34.541Z,100.00
2023-05-05T19:40:00.778Z,100.00
2023-05-05T19:42:27.018Z,100.00
2023-05-05T19:44:53.298Z,100.00
2023-05-05T19:47:19.573Z,100.00
2023-05-05T19:49:45.880Z,100.00
2023-05-05T19:52:12.142Z,100.00
2023-05-05T19:54:38.425Z,100.00
2023-05-05T19:57:04.739Z,100.00
2023-05-05T19:59:30.968Z,100.00
2023-05-05T20:01:57.495Z,100.00
2023-05-05T20:04:23.946Z,100.00
2023-05-05T20:06:50.309Z,100.00
2023-05-05T20:09:16.578Z,100.00
2023-05-05T20:11:42.815Z,100.00
2023-05-05T20:14:09.073Z,100.00
2023-05-05T20:16:35.543Z,100.00
2023-05-05T20:19:01.987Z,100.00
2023-05-05T20:21:28.310Z,100.00
2023-05-05T20:23:54.639Z,100.00
2023-05-05T20:26:20.894Z,100.00
2023-05-05T20:28:47.113Z,100.00
2023-05-05T20:31:13.723Z,100.00
2023-05-05T20:33:40.142Z,100.00
2023-05-05T20:36:06.409Z,100.00
2023-05-05T20:38:32.710Z,100.00
2023-05-05T20:40:59.019Z,100.00
2023-05-05T20:43:25.281Z,100.00
2023-05-05T20:45:51.543Z,100.00
2023-05-05T20:48:17.773Z,100.00
2023-05-05T20:50:44.014Z,100.00
2023-05-05T20:53:10.252Z,100.00
2023-05-05T20:55:36.512Z,100.00
2023-05-05T20:58:02.858Z,100.00
2023-05-05T21:00:29.155Z,100.00
2023-05-05T21:02:55.490Z,100.00
2023-05-05T21:05:21.835Z,100.00
2023-05-05T21:07:48.099Z,100.00
2023-05-05T21:10:14.329Z,100.00
2023-05-05T21:12:40.704Z,100.00
2023-05-05T21:15:07.359Z,100.00
2023-05-05T21:17:33.850Z,100.00
2023-05-05T21:20:00.176Z,100.00
2023-05-05T21:22:26.397Z,100.00
2023-05-05T21:24:52.685Z,100.00
2023-05-05T21:27:18.981Z,100.00
2023-05-05T21:29:45.218Z,100.00
2023-05-05T21:32:11.452Z,100.00
2023-05-05T21:34:37.710Z,100.00
2023-05-05T21:37:04.057Z,100.00
2023-05-05T21:39:30.340Z,100.00
2023-05-05T21:41:56.572Z,100.00
2023-05-05T21:44:22.820Z,100.00
2023-05-05T21:46:49.142Z,100.00
2023-05-05T21:49:15.529Z,100.00
2023-05-05T21:51:41.774Z,100.00
2023-05-05T21:54:08.078Z,100.00
2023-05-05T21:56:34.350Z,100.00
2023-05-05T21:59:00.713Z,100.00
2023-05-05T22:01:26.979Z,100.00
2023-05-05T22:03:53.390Z,100.00
2023-05-05T22:06:19.783Z,100.00
2023-05-05T22:08:46.057Z,100.00
2023-05-05T22:11:12.350Z,100.00
2023-05-05T22:13:38.625Z,100.00
2023-05-05T22:16:04.937Z,100.00
2023-05-05T22:18:31.274Z,100.00
2023-05-05T22:20:57.568Z,100.00
2023-05-05T22:23:23.842Z,100.00
2023-05-05T22:25:50.126Z,100.00
2023-05-05T22:28:16.349Z,100.00
2023-05-05T22:30:42.602Z,100.00
2023-05-05T22:33:08.954Z,100.00
2023-05-05T22:35:35.261Z,100.00
2023-05-05T22:38:01.529Z,100.00
2023-05-05T22:40:27.873Z,100.00
2023-05-05T22:42:54.231Z,100.00
2023-05-05T22:45:20.472Z,100.00
2023-05-05T22:47:46.750Z,100.00
2023-05-05T22:50:13.059Z,100.00
2023-05-05T22:52:39.299Z,100.00
2023-05-05T22:55:05.565Z,100.00
2023-05-05T22:57:31.899Z,100.00
2023-05-05T22:59:58.190Z,100.00
2023-05-05T23:02:24.498Z,100.00
2023-05-05T23:04:50.797Z,100.00
2023-05-05T23:07:17.066Z,100.00
2023-05-05T23:09:43.271Z,100.00
2023-05-05T23:12:09.477Z,100.00
2023-05-05T23:14:35.935Z,100.00
2023-05-05T23:17:02.351Z,100.00
2023-05-05T23:19:28.661Z,100.00
2023-05-05T23:21:54.894Z,100.00
2023-05-05T23:24:21.094Z,100.00
2023-05-05T23:26:47.347Z,100.00
2023-05-05T23:29:13.566Z,100.00
2023-05-05T23:31:39.843Z,100.00
2023-05-05T23:34:06.141Z,100.00
2023-05-05T23:36:32.374Z,100.00
2023-05-05T23:38:58.658Z,100.00
2023-05-05T23:41:24.904Z,100.00
2023-05-05T23:43:51.162Z,100.00
2023-05-05T23:46:17.456Z,100.00
2023-05-05T23:48:43.789Z,100.00
2023-05-05T23:51:10.034Z,100.00
2023-05-05T23:53:36.300Z,100.00
2023-05-05T23:56:02.571Z,100.00
2023-05-05T23:58:28.848Z,100.00
